createdAt,value
2022-11-23T00:01:39.368Z,98784.31
2022-11-23T00:06:43.498Z,98780.59
2022-11-23T00:11:46.292Z,98783.44
2022-11-23T00:16:49.114Z,98787.69
2022-11-23T00:21:53.251Z,98787.69
2022-11-23T00:26:56.027Z,98788.53
2022-11-23T00:31:58.832Z,98786.53
2022-11-23T00:37:02.951Z,98785.56
2022-11-23T00:42:06.040Z,98782.13
2022-11-23T00:47:08.893Z,98786.00
2022-11-23T00:52:13.112Z,98799.59
2022-11-23T00:57:15.928Z,98805.47
2022-11-23T01:02:20.305Z,98801.34
2022-11-23T01:07:24.521Z,98801.09
2022-11-23T01:12:29.201Z,98800.53
2022-11-23T01:17:31.967Z,98798.44
2022-11-23T01:22:36.098Z,98799.03
2022-11-23T01:27:38.922Z,98803.84
2022-11-23T01:32:41.683Z,98797.16
2022-11-23T01:37:45.797Z,98807.94
2022-11-23T01:42:54.900Z,98809.25
2022-11-23T01:47:57.702Z,98815.75
2022-11-23T01:53:01.946Z,98816.91
2022-11-23T01:58:09.073Z,98834.94
2022-11-23T02:03:12.035Z,98833.34
2022-11-23T02:08:17.864Z,98832.66
2022-11-23T02:13:20.974Z,98829.97
2022-11-23T02:18:26.011Z,98828.41
2022-11-23T02:23:39.073Z,98826.00
2022-11-23T02:28:46.770Z,98825.28
2022-11-23T02:33:49.565Z,98824.59
2022-11-23T02:38:53.109Z,98826.44
2022-11-23T02:43:58.920Z,98815.81
2022-11-23T02:49:01.932Z,98822.03
2022-11-23T02:54:04.944Z,98819.78
2022-11-23T02:59:11.968Z,98829.56
2022-11-23T03:04:15.428Z,98835.78
2022-11-23T03:09:18.455Z,98849.25
2022-11-23T03:14:23.068Z,98843.31
2022-11-23T03:19:33.299Z,98846.13
2022-11-23T03:24:37.410Z,98841.59
2022-11-23T03:29:43.185Z,98835.50
2022-11-23T03:34:51.791Z,98848.97
2022-11-23T03:39:56.438Z,98854.50
2022-11-23T03:45:32.708Z,98836.50
2022-11-23T03:50:36.096Z,98845.59
2022-11-23T03:55:39.066Z,98841.16
2022-11-23T04:00:43.537Z,98850.97
2022-11-23T04:05:49.265Z,98841.16
2022-11-23T04:11:10.768Z,98846.56
2022-11-23T04:16:16.736Z,98848.41
2022-11-23T04:21:19.655Z,98852.94
2022-11-23T04:26:22.586Z,98859.31
2022-11-23T04:31:26.738Z,98858.47
2022-11-23T04:36:44.973Z,98856.47
2022-11-23T04:41:49.681Z,98846.72
2022-11-23T04:46:54.152Z,98833.25
2022-11-23T04:51:57.575Z,98840.63
2022-11-23T04:57:06.970Z,98847.69
2022-11-23T05:02:11.766Z,98842.31
2022-11-23T05:07:14.652Z,98850.41
2022-11-23T05:12:20.959Z,98842.47
2022-11-23T05:17:25.498Z,98839.78
2022-11-23T05:22:30.399Z,98840.78
2022-11-23T05:27:34.228Z,98835.38
2022-11-23T05:32:38.903Z,98844.31
2022-11-23T05:37:42.787Z,98844.44
2022-11-23T05:42:47.721Z,98837.34
2022-11-23T05:47:59.419Z,98829.28
2022-11-23T05:53:14.062Z,98836.50
2022-11-23T05:58:19.669Z,98828.59
2022-11-23T06:03:25.224Z,98836.50
2022-11-23T06:08:28.103Z,98836.66
2022-11-23T06:13:31.377Z,98843.88
2022-11-23T06:18:36.333Z,98842.19
2022-11-23T06:23:39.219Z,98849.38
2022-11-23T06:28:43.748Z,98852.81
2022-11-23T06:33:48.032Z,98854.78
2022-11-23T06:38:50.992Z,98865.69
2022-11-23T06:43:58.568Z,98865.53
2022-11-23T06:49:13.613Z,98861.31
2022-11-23T06:54:22.201Z,98871.06
2022-11-23T06:59:27.644Z,98866.69
2022-11-23T07:04:31.949Z,98867.84
2022-11-23T07:09:35.210Z,98881.56
2022-11-23T07:14:54.897Z,98881.72
2022-11-23T07:19:59.421Z,98888.78
2022-11-23T07:25:02.286Z,98886.94
2022-11-23T07:30:06.261Z,98885.25
2022-11-23T07:35:12.580Z,98891.34
2022-11-23T07:40:18.805Z,98885.81
2022-11-23T07:45:22.965Z,98892.31
2022-11-23T07:50:32.180Z,98906.63
2022-11-23T07:55:36.166Z,98899.56
2022-11-23T08:00:39.289Z,98897.88
2022-11-23T08:05:43.464Z,98895.28
2022-11-23T08:10:51.430Z,98897.88
2022-11-23T08:15:56.232Z,98903.34
2022-11-23T08:21:01.727Z,98904.50
2022-11-23T08:26:09.078Z,98908.19
2022-11-23T08:31:16.418Z,98912.13
2022-11-23T08:36:20.864Z,98914.97
2022-11-23T08:41:23.757Z,98913.41
2022-11-23T08:46:26.544Z,98911.84
2022-11-23T08:51:30.683Z,98922.72
2022-11-23T08:56:33.538Z,98923.00
2022-11-23T09:01:36.409Z,98922.28
2022-11-23T09:06:40.678Z,98925.25
2022-11-23T09:11:43.501Z,98930.06
2022-11-23T09:16:46.336Z,98935.56
2022-11-23T09:21:50.638Z,98927.78
2022-11-23T09:26:53.516Z,98937.81
2022-11-23T09:31:56.387Z,98937.94
2022-11-23T09:37:00.615Z,98927.34
2022-11-23T09:42:45.049Z,98926.59
2022-11-23T09:48:02.962Z,98917.81
2022-11-23T09:53:14.611Z,98906.47
2022-11-23T09:58:19.773Z,98904.94
2022-11-23T10:03:22.626Z,98903.94
2022-11-23T10:08:37.451Z,98909.47
2022-11-23T10:13:46.170Z,98912.16
2022-11-23T10:18:58.670Z,98901.66
2022-11-23T10:24:13.016Z,98909.88
2022-11-23T10:29:18.081Z,98912.69
2022-11-23T10:34:30.688Z,98911.84
2022-11-23T10:39:35.134Z,98911.84
2022-11-23T10:44:39.765Z,98898.41
2022-11-23T10:49:58.323Z,98903.09
2022-11-23T10:55:09.190Z,98901.75
2022-11-23T11:00:18.275Z,98894.81
2022-11-23T11:06:06.875Z,98895.25
2022-11-23T11:11:01.291Z,98887.47
2022-11-23T11:16:07.003Z,98893.03
2022-11-23T11:21:21.936Z,98896.00
2022-11-23T11:26:28.263Z,98891.44
2022-11-23T11:31:54.970Z,98888.06
2022-11-23T11:37:05.339Z,98881.78
2022-11-23T11:42:19.101Z,98878.97
2022-11-23T11:47:32.098Z,98874.88
2022-11-23T11:52:40.127Z,98873.97
2022-11-23T11:57:49.141Z,98883.94
2022-11-23T12:03:02.047Z,98881.72
2022-11-23T12:08:09.606Z,98878.19
2022-11-23T12:13:16.862Z,98882.81
2022-11-23T12:18:57.674Z,98888.94
2022-11-23T12:24:09.533Z,98882.16
2022-11-23T12:29:36.494Z,98886.56
2022-11-23T12:35:17.990Z,98887.84
2022-11-23T12:40:35.131Z,98884.41
2022-11-23T12:45:55.364Z,98887.25
2022-11-23T12:51:13.548Z,98888.94
2022-11-23T12:56:31.740Z,98888.00
2022-11-23T13:01:42.426Z,98874.25
2022-11-23T13:07:27.317Z,98880.34
2022-11-23T13:12:45.464Z,98875.09
2022-11-23T13:17:57.216Z,98867.03
2022-11-23T13:23:06.430Z,98863.66
2022-11-23T13:28:33.184Z,98872.13
2022-11-23T13:33:39.764Z,98876.91
2022-11-23T13:38:44.355Z,98877.88
2022-11-23T13:43:47.717Z,98870.56
2022-11-23T13:48:57.762Z,98867.00
2022-11-23T13:54:04.127Z,98869.81
2022-11-23T13:59:30.715Z,98865.69
2022-11-23T14:04:37.114Z,98864.84
2022-11-23T14:09:46.714Z,98870.13
2022-11-23T14:15:01.952Z,98873.66
2022-11-23T14:20:40.065Z,98871.50
2022-11-23T14:25:56.858Z,98865.38
2022-11-23T14:31:13.325Z,98868.59
2022-11-23T14:36:31.798Z,98874.63
2022-11-23T14:41:37.025Z,98879.16
2022-11-23T14:47:00.543Z,98876.03
2022-11-23T14:52:06.631Z,98886.75
2022-11-23T14:57:15.112Z,98890.09
2022-11-23T15:02:21.769Z,98886.69
2022-11-23T15:07:29.288Z,98895.88
2022-11-23T15:12:42.802Z,98893.72
2022-11-23T15:17:52.927Z,98898.75
2022-11-23T15:22:57.126Z,98905.09
2022-11-23T15:28:00.012Z,98905.38
2022-11-23T15:33:08.260Z,98907.31
2022-11-23T15:38:22.047Z,98905.91
2022-11-23T15:43:26.370Z,98903.22
2022-11-23T15:48:31.999Z,98907.13
2022-11-23T15:53:47.511Z,98913.75
2022-11-23T15:58:51.929Z,98902.88
2022-11-23T16:04:01.021Z,98905.56
2022-11-23T16:09:49.683Z,98911.19
2022-11-23T16:14:49.020Z,98910.22
2022-11-23T16:19:53.834Z,98906.00
2022-11-23T16:25:04.431Z,98911.47
2022-11-23T16:30:23.332Z,98910.56
2022-11-23T16:35:26.328Z,98912.47
2022-11-23T16:40:32.226Z,98909.81
2022-11-23T16:45:35.237Z,98918.09
2022-11-23T16:50:38.048Z,98918.28
2022-11-23T16:55:43.711Z,98925.44
2022-11-23T17:00:49.137Z,98932.94
2022-11-23T17:05:52.011Z,98933.16
2022-11-23T17:10:57.124Z,98935.28
2022-11-23T17:16:00.416Z,98939.75
2022-11-23T17:21:03.252Z,98936.63
2022-11-23T17:26:08.232Z,98933.38
2022-11-23T17:31:11.562Z,98940.94
2022-11-23T17:36:14.410Z,98944.63
2022-11-23T17:41:18.702Z,98936.00
2022-11-23T17:46:24.678Z,98937.28
2022-11-23T17:51:28.261Z,98952.59
2022-11-23T17:56:32.843Z,98951.22
2022-11-23T18:01:35.812Z,98949.81
2022-11-23T18:06:38.992Z,98958.34
2022-11-23T18:11:43.233Z,98959.88
2022-11-23T18:16:46.057Z,98960.31
2022-11-23T18:21:49.039Z,98972.38
2022-11-23T18:26:53.274Z,98964.19
2022-11-23T18:31:56.258Z,98963.75
2022-11-23T18:36:59.202Z,98976.94
2022-11-23T18:42:05.928Z,98981.19
2022-11-23T18:47:09.337Z,98986.44
2022-11-23T18:52:13.787Z,98993.97
2022-11-23T18:57:18.930Z,98991.13
2022-11-23T19:02:21.823Z,98988.28
2022-11-23T19:07:27.062Z,98990.72
2022-11-23T19:12:31.662Z,98987.72
2022-11-23T19:17:35.171Z,98992.84
2022-11-23T19:22:38.027Z,99002.63
2022-11-23T19:27:42.131Z,99017.38
2022-11-23T19:32:45.175Z,99016.25
2022-11-23T19:37:48.149Z,99018.09
2022-11-23T19:42:52.276Z,99022.50
2022-11-23T19:47:55.388Z,99022.34
2022-11-23T19:53:12.401Z,99033.97
2022-11-23T19:58:17.770Z,99030.16
2022-11-23T20:03:20.717Z,99040.78
2022-11-23T20:08:23.585Z,99040.63
2022-11-23T20:13:27.801Z,99052.28
2022-11-23T20:18:30.565Z,99053.97
2022-11-23T20:23:33.689Z,99057.50
2022-11-23T20:28:38.215Z,99065.47
2022-11-23T20:33:41.010Z,99071.72
2022-11-23T20:38:44.306Z,99070.72
2022-11-23T20:43:50.410Z,99073.88
2022-11-23T20:48:53.377Z,99068.63
2022-11-23T20:53:56.499Z,99066.91
2022-11-23T20:59:01.011Z,99071.31
2022-11-23T21:04:03.886Z,99065.78
2022-11-23T21:09:06.766Z,99072.88
2022-11-23T21:14:17.786Z,99079.97
2022-11-23T21:19:22.569Z,99091.47
2022-11-23T21:24:26.140Z,99091.03
2022-11-23T21:29:31.086Z,99090.34
2022-11-23T21:34:34.415Z,99096.56
2022-11-23T21:39:38.050Z,99106.34
2022-11-23T21:44:42.278Z,99121.56
2022-11-23T21:49:45.237Z,99130.50
2022-11-23T21:54:49.262Z,99126.66
2022-11-23T21:59:54.117Z,99122.09
2022-11-23T22:04:56.919Z,99117.88
2022-11-23T22:09:59.845Z,99113.19
2022-11-23T22:15:04.464Z,99132.03
2022-11-23T22:20:09.288Z,99130.94
2022-11-23T22:25:12.233Z,99140.72
2022-11-23T22:30:17.710Z,99141.41
2022-11-23T22:35:20.640Z,99137.16
2022-11-23T22:40:23.469Z,99142.41
2022-11-23T22:45:27.724Z,99143.41
2022-11-23T22:50:30.688Z,99150.34
2022-11-23T22:55:33.531Z,99152.19
2022-11-23T23:00:37.715Z,99142.25
2022-11-23T23:05:40.540Z,99153.91
2022-11-23T23:10:43.394Z,99159.16
2022-11-23T23:15:47.895Z,99170.91
2022-11-23T23:20:50.810Z,99172.66
2022-11-23T23:25:54.730Z,99173.50
2022-11-23T23:31:02.631Z,99177.91
2022-11-23T23:36:06.415Z,99185.13
2022-11-23T23:41:10.754Z,99185.97
2022-11-23T23:46:15.024Z,99193.06
2022-11-23T23:51:19.313Z,99192.22
2022-11-23T23:56:23.486Z,99194.91
